sensor_id;sensor_type;location;lat;lon;timestamp;P1;durP1;ratioP1;P2;durP2;ratioP2
81137;SDS011;70623;50.886;3.892;2023-06-14T00:02:11;11.43;;;7.45;;
81137;SDS011;70623;50.886;3.892;2023-06-14T00:04:36;13.25;;;7.18;;
81137;SDS011;70623;50.886;3.892;2023-06-14T00:07:04;12.52;;;8.05;;
81137;SDS011;70623;50.886;3.892;2023-06-14T00:09:33;12.95;;;7.65;;
81137;SDS011;70623;50.886;3.892;2023-06-14T00:11:58;9.85;;;7.47;;
81137;SDS011;70623;50.886;3.892;2023-06-14T00:14:24;13.00;;;7.53;;
81137;SDS011;70623;50.886;3.892;2023-06-14T00:16:50;11.88;;;7.20;;
81137;SDS011;70623;50.886;3.892;2023-06-14T00:19:20;13.70;;;7.93;;
81137;SDS011;70623;50.886;3.892;2023-06-14T00:21:46;12.38;;;8.05;;
81137;SDS011;70623;50.886;3.892;2023-06-14T00:24:11;11.13;;;7.65;;
81137;SDS011;70623;50.886;3.892;2023-06-14T00:26:37;10.63;;;7.43;;
81137;SDS011;70623;50.886;3.892;2023-06-14T00:29:03;15.48;;;8.55;;
81137;SDS011;70623;50.886;3.892;2023-06-14T00:31:31;15.30;;;8.10;;
81137;SDS011;70623;50.886;3.892;2023-06-14T00:33:57;9.82;;;6.80;;
81137;SDS011;70623;50.886;3.892;2023-06-14T00:36:22;10.82;;;7.88;;
81137;SDS011;70623;50.886;3.892;2023-06-14T00:38:50;12.88;;;8.27;;
81137;SDS011;70623;50.886;3.892;2023-06-14T00:41:16;18.00;;;8.57;;
81137;SDS011;70623;50.886;3.892;2023-06-14T00:43:41;13.00;;;7.95;;
81137;SDS011;70623;50.886;3.892;2023-06-14T00:46:07;16.88;;;8.18;;
81137;SDS011;70623;50.886;3.892;2023-06-14T00:48:35;13.55;;;7.97;;
81137;SDS011;70623;50.886;3.892;2023-06-14T00:51:05;15.45;;;8.02;;
81137;SDS011;70623;50.886;3.892;2023-06-14T00:53:31;13.85;;;7.90;;
81137;SDS011;70623;50.886;3.892;2023-06-14T00:56:00;12.63;;;7.70;;
81137;SDS011;70623;50.886;3.892;2023-06-14T00:58:28;12.55;;;8.50;;
81137;SDS011;70623;50.886;3.892;2023-06-14T01:00:57;11.95;;;8.25;;
81137;SDS011;70623;50.886;3.892;2023-06-14T01:03:23;13.40;;;8.05;;
81137;SDS011;70623;50.886;3.892;2023-06-14T01:05:56;12.40;;;8.60;;
81137;SDS011;70623;50.886;3.892;2023-06-14T01:11:28;14.32;;;9.45;;
81137;SDS011;70623;50.886;3.892;2023-06-14T01:14:05;16.17;;;8.73;;
81137;SDS011;70623;50.886;3.892;2023-06-14T01:16:32;14.68;;;8.70;;
81137;SDS011;70623;50.886;3.892;2023-06-14T01:19:01;15.10;;;9.48;;
81137;SDS011;70623;50.886;3.892;2023-06-14T01:21:29;14.43;;;9.02;;
81137;SDS011;70623;50.886;3.892;2023-06-14T01:23:55;14.50;;;9.32;;
81137;SDS011;70623;50.886;3.892;2023-06-14T01:26:23;14.88;;;8.85;;
81137;SDS011;70623;50.886;3.892;2023-06-14T01:28:51;12.75;;;8.68;;
81137;SDS011;70623;50.886;3.892;2023-06-14T01:33:52;15.32;;;9.45;;
81137;SDS011;70623;50.886;3.892;2023-06-14T01:36:21;15.57;;;9.13;;
81137;SDS011;70623;50.886;3.892;2023-06-14T01:38:49;13.00;;;9.10;;
81137;SDS011;70623;50.886;3.892;2023-06-14T01:41:17;13.60;;;9.82;;
81137;SDS011;70623;50.886;3.892;2023-06-14T01:43:45;13.32;;;9.23;;
81137;SDS011;70623;50.886;3.892;2023-06-14T01:46:14;15.77;;;9.65;;
81137;SDS011;70623;50.886;3.892;2023-06-14T01:48:40;16.27;;;9.43;;
81137;SDS011;70623;50.886;3.892;2023-06-14T01:51:09;15.18;;;9.23;;
81137;SDS011;70623;50.886;3.892;2023-06-14T01:53:34;13.18;;;9.45;;
81137;SDS011;70623;50.886;3.892;2023-06-14T01:56:01;14.27;;;9.48;;
81137;SDS011;70623;50.886;3.892;2023-06-14T01:58:26;12.63;;;9.05;;
81137;SDS011;70623;50.886;3.892;2023-06-14T02:00:54;13.60;;;9.77;;
81137;SDS011;70623;50.886;3.892;2023-06-14T02:03:21;14.27;;;9.73;;
81137;SDS011;70623;50.886;3.892;2023-06-14T02:05:50;13.25;;;9.65;;
81137;SDS011;70623;50.886;3.892;2023-06-14T02:08:16;12.60;;;9.43;;
81137;SDS011;70623;50.886;3.892;2023-06-14T02:10:41;16.10;;;8.75;;
81137;SDS011;70623;50.886;3.892;2023-06-14T02:13:07;11.75;;;9.23;;
81137;SDS011;70623;50.886;3.892;2023-06-14T02:15:35;12.98;;;8.98;;
81137;SDS011;70623;50.886;3.892;2023-06-14T02:18:01;19.10;;;9.43;;
81137;SDS011;70623;50.886;3.892;2023-06-14T02:20:28;12.55;;;8.60;;
81137;SDS011;70623;50.886;3.892;2023-06-14T02:22:56;12.45;;;9.77;;
81137;SDS011;70623;50.886;3.892;2023-06-14T02:25:22;14.57;;;9.75;;
81137;SDS011;70623;50.886;3.892;2023-06-14T02:27:48;13.73;;;9.15;;
81137;SDS011;70623;50.886;3.892;2023-06-14T02:30:13;17.02;;;9.25;;
81137;SDS011;70623;50.886;3.892;2023-06-14T02:32:40;13.25;;;9.95;;
81137;SDS011;70623;50.886;3.892;2023-06-14T02:35:08;13.88;;;9.77;;
81137;SDS011;70623;50.886;3.892;2023-06-14T02:37:34;17.63;;;10.27;;
81137;SDS011;70623;50.886;3.892;2023-06-14T02:40:02;18.00;;;10.50;;
81137;SDS011;70623;50.886;3.892;2023-06-14T02:42:28;12.55;;;9.98;;
81137;SDS011;70623;50.886;3.892;2023-06-14T02:44:54;13.50;;;9.65;;
81137;SDS011;70623;50.886;3.892;2023-06-14T02:47:20;18.13;;;10.50;;
81137;SDS011;70623;50.886;3.892;2023-06-14T02:49:45;15.65;;;9.63;;
81137;SDS011;70623;50.886;3.892;2023-06-14T02:52:16;16.55;;;9.63;;
81137;SDS011;70623;50.886;3.892;2023-06-14T02:54:44;21.63;;;10.80;;
81137;SDS011;70623;50.886;3.892;2023-06-14T02:57:09;15.13;;;9.60;;
81137;SDS011;70623;50.886;3.892;2023-06-14T02:59:38;14.68;;;10.23;;
81137;SDS011;70623;50.886;3.892;2023-06-14T03:02:03;13.68;;;9.88;;
81137;SDS011;70623;50.886;3.892;2023-06-14T03:04:30;12.32;;;10.10;;
81137;SDS011;70623;50.886;3.892;2023-06-14T03:06:59;19.45;;;10.55;;
81137;SDS011;70623;50.886;3.892;2023-06-14T03:09:27;17.80;;;11.07;;
81137;SDS011;70623;50.886;3.892;2023-06-14T03:11:53;14.10;;;9.55;;
81137;SDS011;70623;50.886;3.892;2023-06-14T03:14:19;14.75;;;9.75;;
81137;SDS011;70623;50.886;3.892;2023-06-14T03:16:46;12.90;;;9.55;;
81137;SDS011;70623;50.886;3.892;2023-06-14T03:19:12;14.93;;;9.18;;
81137;SDS011;70623;50.886;3.892;2023-06-14T03:21:37;16.20;;;10.52;;
81137;SDS011;70623;50.886;3.892;2023-06-14T03:24:08;14.32;;;10.27;;
81137;SDS011;70623;50.886;3.892;2023-06-14T03:26:36;16.60;;;9.73;;
81137;SDS011;70623;50.886;3.892;2023-06-14T03:29:02;17.40;;;9.80;;
81137;SDS011;70623;50.886;3.892;2023-06-14T03:31:28;13.18;;;8.90;;
81137;SDS011;70623;50.886;3.892;2023-06-14T03:33:57;19.65;;;10.25;;
81137;SDS011;70623;50.886;3.892;2023-06-14T03:36:26;15.02;;;9.63;;
81137;SDS011;70623;50.886;3.892;2023-06-14T03:38:53;16.75;;;9.32;;
81137;SDS011;70623;50.886;3.892;2023-06-14T03:41:19;17.25;;;9.48;;
81137;SDS011;70623;50.886;3.892;2023-06-14T03:43:45;13.50;;;9.27;;
81137;SDS011;70623;50.886;3.892;2023-06-14T03:46:11;12.68;;;8.63;;
81137;SDS011;70623;50.886;3.892;2023-06-14T03:48:36;17.75;;;10.23;;
81137;SDS011;70623;50.886;3.892;2023-06-14T03:51:03;17.15;;;8.68;;
81137;SDS011;70623;50.886;3.892;2023-06-14T03:53:30;13.65;;;9.73;;
81137;SDS011;70623;50.886;3.892;2023-06-14T03:55:55;12.57;;;8.95;;
81137;SDS011;70623;50.886;3.892;2023-06-14T03:58:25;15.02;;;9.48;;
81137;SDS011;70623;50.886;3.892;2023-06-14T04:00:50;17.75;;;9.30;;
81137;SDS011;70623;50.886;3.892;2023-06-14T04:03:16;14.25;;;8.35;;
81137;SDS011;70623;50.886;3.892;2023-06-14T04:05:42;13.32;;;8.93;;
81137;SDS011;70623;50.886;3.892;2023-06-14T04:08:15;13.13;;;8.43;;
81137;SDS011;70623;50.886;3.892;2023-06-14T04:10:41;14.73;;;9.75;;
81137;SDS011;70623;50.886;3.892;2023-06-14T04:13:07;13.00;;;8.23;;
81137;SDS011;70623;50.886;3.892;2023-06-14T04:15:32;11.23;;;8.88;;
81137;SDS011;70623;50.886;3.892;2023-06-14T04:17:59;18.55;;;8.77;;
81137;SDS011;70623;50.886;3.892;2023-06-14T04:20:25;13.98;;;8.25;;
81137;SDS011;70623;50.886;3.892;2023-06-14T04:22:51;13.13;;;8.65;;
81137;SDS011;70623;50.886;3.892;2023-06-14T04:25:17;13.43;;;7.85;;
81137;SDS011;70623;50.886;3.892;2023-06-14T04:27:45;15.98;;;8.70;;
81137;SDS011;70623;50.886;3.892;2023-06-14T04:30:12;13.45;;;8.30;;
81137;SDS011;70623;50.886;3.892;2023-06-14T04:32:38;13.77;;;8.60;;
81137;SDS011;70623;50.886;3.892;2023-06-14T04:35:07;12.02;;;9.02;;
81137;SDS011;70623;50.886;3.892;2023-06-14T04:37:33;11.77;;;8.77;;
81137;SDS011;70623;50.886;3.892;2023-06-14T04:39:59;10.05;;;8.10;;
81137;SDS011;70623;50.886;3.892;2023-06-14T04:42:25;17.90;;;9.02;;
81137;SDS011;70623;50.886;3.892;2023-06-14T04:44:55;16.08;;;8.88;;
81137;SDS011;70623;50.886;3.892;2023-06-14T04:47:22;17.08;;;8.75;;
81137;SDS011;70623;50.886;3.892;2023-06-14T04:49:50;12.63;;;8.30;;
81137;SDS011;70623;50.886;3.892;2023-06-14T04:52:18;12.55;;;8.20;;
81137;SDS011;70623;50.886;3.892;2023-06-14T04:54:46;15.57;;;8.82;;
81137;SDS011;70623;50.886;3.892;2023-06-14T04:57:12;14.77;;;8.18;;
81137;SDS011;70623;50.886;3.892;2023-06-14T04:59:47;11.77;;;8.27;;
81137;SDS011;70623;50.886;3.892;2023-06-14T05:02:13;18.40;;;9.50;;
81137;SDS011;70623;50.886;3.892;2023-06-14T05:04:41;14.23;;;9.25;;
81137;SDS011;70623;50.886;3.892;2023-06-14T05:07:07;14.35;;;9.25;;
81137;SDS011;70623;50.886;3.892;2023-06-14T05:09:34;14.10;;;9.10;;
81137;SDS011;70623;50.886;3.892;2023-06-14T05:12:09;12.30;;;8.18;;
81137;SDS011;70623;50.886;3.892;2023-06-14T05:14:35;18.13;;;8.85;;
81137;SDS011;70623;50.886;3.892;2023-06-14T05:17:01;15.10;;;8.75;;
81137;SDS011;70623;50.886;3.892;2023-06-14T05:19:30;16.98;;;9.57;;
81137;SDS011;70623;50.886;3.892;2023-06-14T05:21:56;11.68;;;8.38;;
81137;SDS011;70623;50.886;3.892;2023-06-14T05:24:22;22.13;;;9.45;;
81137;SDS011;70623;50.886;3.892;2023-06-14T05:26:47;18.52;;;9.55;;
81137;SDS011;70623;50.886;3.892;2023-06-14T05:29:14;12.38;;;8.55;;
81137;SDS011;70623;50.886;3.892;2023-06-14T05:31:39;15.80;;;9.45;;
81137;SDS011;70623;50.886;3.892;2023-06-14T05:34:07;15.27;;;9.32;;
81137;SDS011;70623;50.886;3.892;2023-06-14T05:36:33;14.68;;;9.20;;
81137;SDS011;70623;50.886;3.892;2023-06-14T05:38:58;15.23;;;8.55;;
81137;SDS011;70623;50.886;3.892;2023-06-14T05:41:28;19.42;;;9.32;;
81137;SDS011;70623;50.886;3.892;2023-06-14T05:43:54;13.82;;;8.32;;
81137;SDS011;70623;50.886;3.892;2023-06-14T05:46:21;14.77;;;8.73;;
81137;SDS011;70623;50.886;3.892;2023-06-14T05:48:49;21.30;;;9.82;;
81137;SDS011;70623;50.886;3.892;2023-06-14T05:51:15;14.07;;;8.80;;
81137;SDS011;70623;50.886;3.892;2023-06-14T05:53:46;17.20;;;8.38;;
81137;SDS011;70623;50.886;3.892;2023-06-14T05:56:13;12.05;;;8.82;;
81137;SDS011;70623;50.886;3.892;2023-06-14T05:58:39;14.85;;;8.25;;
81137;SDS011;70623;50.886;3.892;2023-06-14T06:01:05;17.98;;;9.10;;
81137;SDS011;70623;50.886;3.892;2023-06-14T06:03:31;15.27;;;8.55;;
81137;SDS011;70623;50.886;3.892;2023-06-14T06:05:57;14.52;;;8.75;;
81137;SDS011;70623;50.886;3.892;2023-06-14T06:08:23;12.70;;;8.38;;
81137;SDS011;70623;50.886;3.892;2023-06-14T06:10:49;10.77;;;7.53;;
81137;SDS011;70623;50.886;3.892;2023-06-14T06:13:15;19.90;;;8.52;;
81137;SDS011;70623;50.886;3.892;2023-06-14T06:15:41;12.35;;;8.15;;
81137;SDS011;70623;50.886;3.892;2023-06-14T06:18:06;19.25;;;8.05;;
81137;SDS011;70623;50.886;3.892;2023-06-14T06:20:32;12.13;;;7.68;;
81137;SDS011;70623;50.886;3.892;2023-06-14T06:22:58;13.38;;;8.52;;
81137;SDS011;70623;50.886;3.892;2023-06-14T06:25:26;11.35;;;7.60;;
81137;SDS011;70623;50.886;3.892;2023-06-14T06:27:53;13.73;;;8.52;;
81137;SDS011;70623;50.886;3.892;2023-06-14T06:30:31;17.65;;;8.20;;
81137;SDS011;70623;50.886;3.892;2023-06-14T06:32:58;17.40;;;7.25;;
81137;SDS011;70623;50.886;3.892;2023-06-14T06:35:28;14.30;;;7.78;;
81137;SDS011;70623;50.886;3.892;2023-06-14T06:37:55;18.42;;;7.65;;
81137;SDS011;70623;50.886;3.892;2023-06-14T06:40:22;13.98;;;8.25;;
81137;SDS011;70623;50.886;3.892;2023-06-14T06:42:50;14.50;;;9.00;;
81137;SDS011;70623;50.886;3.892;2023-06-14T06:45:15;11.98;;;7.28;;
81137;SDS011;70623;50.886;3.892;2023-06-14T06:47:43;16.75;;;7.47;;
81137;SDS011;70623;50.886;3.892;2023-06-14T06:50:10;13.88;;;8.32;;
81137;SDS011;70623;50.886;3.892;2023-06-14T06:52:35;13.73;;;8.23;;
81137;SDS011;70623;50.886;3.892;2023-06-14T06:55:01;18.23;;;8.05;;
81137;SDS011;70623;50.886;3.892;2023-06-14T06:57:28;7.95;;;5.55;;
81137;SDS011;70623;50.886;3.892;2023-06-14T06:59:57;10.93;;;7.22;;
81137;SDS011;70623;50.886;3.892;2023-06-14T07:02:22;10.63;;;7.65;;
81137;SDS011;70623;50.886;3.892;2023-06-14T07:04:51;12.63;;;7.63;;
81137;SDS011;70623;50.886;3.892;2023-06-14T07:07:17;11.55;;;6.65;;
81137;SDS011;70623;50.886;3.892;2023-06-14T07:09:45;11.45;;;6.43;;
81137;SDS011;70623;50.886;3.892;2023-06-14T07:12:11;11.63;;;7.90;;
81137;SDS011;70623;50.886;3.892;2023-06-14T07:14:39;11.57;;;8.02;;
81137;SDS011;70623;50.886;3.892;2023-06-14T07:17:05;11.45;;;7.38;;
81137;SDS011;70623;50.886;3.892;2023-06-14T07:19:31;9.35;;;6.18;;
81137;SDS011;70623;50.886;3.892;2023-06-14T07:21:56;11.20;;;6.70;;
81137;SDS011;70623;50.886;3.892;2023-06-14T07:24:24;13.35;;;6.78;;
81137;SDS011;70623;50.886;3.892;2023-06-14T07:26:50;7.47;;;5.90;;
81137;SDS011;70623;50.886;3.892;2023-06-14T07:29:16;11.32;;;5.60;;
81137;SDS011;70623;50.886;3.892;2023-06-14T07:31:41;10.50;;;7.10;;
81137;SDS011;70623;50.886;3.892;2023-06-14T07:34:09;11.55;;;7.07;;
81137;SDS011;70623;50.886;3.892;2023-06-14T07:36:35;15.68;;;7.15;;
81137;SDS011;70623;50.886;3.892;2023-06-14T07:39:02;11.25;;;7.30;;
81137;SDS011;70623;50.886;3.892;2023-06-14T07:41:28;13.80;;;7.30;;
81137;SDS011;70623;50.886;3.892;2023-06-14T07:43:54;9.75;;;6.60;;
81137;SDS011;70623;50.886;3.892;2023-06-14T07:46:22;10.75;;;7.03;;
81137;SDS011;70623;50.886;3.892;2023-06-14T07:48:50;10.50;;;6.78;;
81137;SDS011;70623;50.886;3.892;2023-06-14T07:51:16;12.07;;;6.85;;
81137;SDS011;70623;50.886;3.892;2023-06-14T07:53:44;11.63;;;7.30;;
81137;SDS011;70623;50.886;3.892;2023-06-14T07:56:11;11.13;;;6.85;;
81137;SDS011;70623;50.886;3.892;2023-06-14T07:58:37;9.15;;;5.80;;
81137;SDS011;70623;50.886;3.892;2023-06-14T08:01:02;9.45;;;6.97;;
81137;SDS011;70623;50.886;3.892;2023-06-14T08:03:31;12.23;;;6.18;;
81137;SDS011;70623;50.886;3.892;2023-06-14T08:06:00;8.60;;;6.18;;
81137;SDS011;70623;50.886;3.892;2023-06-14T08:08:26;10.30;;;6.55;;
81137;SDS011;70623;50.886;3.892;2023-06-14T08:10:54;14.18;;;6.53;;
81137;SDS011;70623;50.886;3.892;2023-06-14T08:13:20;17.90;;;7.10;;
81137;SDS011;70623;50.886;3.892;2023-06-14T08:15:46;9.40;;;6.22;;
81137;SDS011;70623;50.886;3.892;2023-06-14T08:18:12;14.82;;;7.40;;
81137;SDS011;70623;50.886;3.892;2023-06-14T08:20:40;13.05;;;6.85;;
81137;SDS011;70623;50.886;3.892;2023-06-14T08:23:06;12.40;;;7.10;;
81137;SDS011;70623;50.886;3.892;2023-06-14T08:25:33;8.80;;;6.13;;
81137;SDS011;70623;50.886;3.892;2023-06-14T08:27:58;10.68;;;6.75;;
81137;SDS011;70623;50.886;3.892;2023-06-14T08:30:25;9.52;;;6.63;;
81137;SDS011;70623;50.886;3.892;2023-06-14T08:32:50;8.40;;;5.90;;
81137;SDS011;70623;50.886;3.892;2023-06-14T08:35:17;8.35;;;6.15;;
81137;SDS011;70623;50.886;3.892;2023-06-14T08:37:43;13.07;;;6.45;;
81137;SDS011;70623;50.886;3.892;2023-06-14T08:40:27;12.57;;;6.75;;
81137;SDS011;70623;50.886;3.892;2023-06-14T08:42:56;10.65;;;5.70;;
81137;SDS011;70623;50.886;3.892;2023-06-14T08:45:22;8.63;;;6.68;;
81137;SDS011;70623;50.886;3.892;2023-06-14T08:47:48;12.30;;;6.00;;
81137;SDS011;70623;50.886;3.892;2023-06-14T08:50:23;8.63;;;6.25;;
81137;SDS011;70623;50.886;3.892;2023-06-14T08:52:57;11.15;;;6.45;;
81137;SDS011;70623;50.886;3.892;2023-06-14T08:55:30;10.32;;;6.47;;
81137;SDS011;70623;50.886;3.892;2023-06-14T08:57:58;10.77;;;6.20;;
81137;SDS011;70623;50.886;3.892;2023-06-14T09:00:26;11.55;;;6.68;;
81137;SDS011;70623;50.886;3.892;2023-06-14T09:02:58;8.68;;;6.05;;
81137;SDS011;70623;50.886;3.892;2023-06-14T09:05:27;10.82;;;6.40;;
81137;SDS011;70623;50.886;3.892;2023-06-14T09:07:54;8.23;;;5.78;;
81137;SDS011;70623;50.886;3.892;2023-06-14T09:10:23;11.68;;;6.45;;
81137;SDS011;70623;50.886;3.892;2023-06-14T09:12:53;9.15;;;5.90;;
81137;SDS011;70623;50.886;3.892;2023-06-14T09:17:50;9.52;;;5.88;;
81137;SDS011;70623;50.886;3.892;2023-06-14T09:20:16;10.93;;;6.13;;
81137;SDS011;70623;50.886;3.892;2023-06-14T09:22:45;11.63;;;6.00;;
81137;SDS011;70623;50.886;3.892;2023-06-14T09:25:15;10.00;;;5.53;;
81137;SDS011;70623;50.886;3.892;2023-06-14T09:28:17;10.00;;;5.47;;
81137;SDS011;70623;50.886;3.892;2023-06-14T09:30:48;16.23;;;7.70;;
81137;SDS011;70623;50.886;3.892;2023-06-14T09:33:17;12.93;;;6.43;;
81137;SDS011;70623;50.886;3.892;2023-06-14T09:35:52;9.35;;;5.93;;
81137;SDS011;70623;50.886;3.892;2023-06-14T09:38:22;8.65;;;5.65;;
81137;SDS011;70623;50.886;3.892;2023-06-14T09:40:52;8.10;;;5.57;;
81137;SDS011;70623;50.886;3.892;2023-06-14T09:43:44;10.52;;;6.38;;
81137;SDS011;70623;50.886;3.892;2023-06-14T09:46:23;10.43;;;5.68;;
81137;SDS011;70623;50.886;3.892;2023-06-14T09:49:03;9.02;;;6.13;;
81137;SDS011;70623;50.886;3.892;2023-06-14T09:51:49;10.48;;;6.25;;
81137;SDS011;70623;50.886;3.892;2023-06-14T09:54:20;11.73;;;6.75;;
81137;SDS011;70623;50.886;3.892;2023-06-14T09:56:51;12.07;;;6.63;;
81137;SDS011;70623;50.886;3.892;2023-06-14T09:59:19;11.50;;;6.45;;
81137;SDS011;70623;50.886;3.892;2023-06-14T10:01:55;13.90;;;6.20;;
81137;SDS011;70623;50.886;3.892;2023-06-14T10:04:24;9.85;;;5.70;;
81137;SDS011;70623;50.886;3.892;2023-06-14T10:06:58;10.43;;;6.07;;
81137;SDS011;70623;50.886;3.892;2023-06-14T10:09:27;8.55;;;5.68;;
81137;SDS011;70623;50.886;3.892;2023-06-14T10:11:56;12.30;;;5.90;;
81137;SDS011;70623;50.886;3.892;2023-06-14T10:14:22;11.43;;;6.10;;
81137;SDS011;70623;50.886;3.892;2023-06-14T10:22:11;8.45;;;5.47;;
81137;SDS011;70623;50.886;3.892;2023-06-14T10:24:42;10.27;;;5.65;;
81137;SDS011;70623;50.886;3.892;2023-06-14T10:27:09;12.10;;;5.78;;
81137;SDS011;70623;50.886;3.892;2023-06-14T10:30:25;8.35;;;5.43;;
81137;SDS011;70623;50.886;3.892;2023-06-14T10:32:27;14.50;;;6.45;;
81137;SDS011;70623;50.886;3.892;2023-06-14T10:34:58;10.18;;;5.25;;
81137;SDS011;70623;50.886;3.892;2023-06-14T10:37:25;16.90;;;6.25;;
81137;SDS011;70623;50.886;3.892;2023-06-14T10:39:51;9.57;;;6.13;;
81137;SDS011;70623;50.886;3.892;2023-06-14T10:42:18;10.52;;;6.40;;
81137;SDS011;70623;50.886;3.892;2023-06-14T10:44:51;10.60;;;6.15;;
81137;SDS011;70623;50.886;3.892;2023-06-14T10:49:50;11.95;;;7.03;;
81137;SDS011;70623;50.886;3.892;2023-06-14T10:52:20;9.63;;;6.45;;
81137;SDS011;70623;50.886;3.892;2023-06-14T10:57:37;8.38;;;6.32;;
81137;SDS011;70623;50.886;3.892;2023-06-14T11:00:04;8.55;;;6.38;;
81137;SDS011;70623;50.886;3.892;2023-06-14T11:02:45;8.82;;;6.38;;
81137;SDS011;70623;50.886;3.892;2023-06-14T11:11:17;11.00;;;6.22;;
81137;SDS011;70623;50.886;3.892;2023-06-14T11:13:46;10.50;;;5.90;;
81137;SDS011;70623;50.886;3.892;2023-06-14T11:16:15;10.75;;;6.15;;
81137;SDS011;70623;50.886;3.892;2023-06-14T11:18:42;11.05;;;6.45;;
81137;SDS011;70623;50.886;3.892;2023-06-14T11:21:10;8.07;;;5.05;;
81137;SDS011;70623;50.886;3.892;2023-06-14T11:23:36;7.63;;;5.28;;
81137;SDS011;70623;50.886;3.892;2023-06-14T11:26:02;9.48;;;6.43;;
81137;SDS011;70623;50.886;3.892;2023-06-14T11:28:40;11.85;;;5.70;;
81137;SDS011;70623;50.886;3.892;2023-06-14T11:31:06;14.02;;;6.03;;
81137;SDS011;70623;50.886;3.892;2023-06-14T11:33:32;9.32;;;5.38;;
81137;SDS011;70623;50.886;3.892;2023-06-14T11:36:01;7.82;;;5.45;;
81137;SDS011;70623;50.886;3.892;2023-06-14T11:38:28;10.13;;;5.80;;
81137;SDS011;70623;50.886;3.892;2023-06-14T11:40:58;9.77;;;5.22;;
81137;SDS011;70623;50.886;3.892;2023-06-14T11:43:24;7.53;;;5.10;;
81137;SDS011;70623;50.886;3.892;2023-06-14T11:45:53;9.68;;;5.75;;
81137;SDS011;70623;50.886;3.892;2023-06-14T11:48:21;10.00;;;5.72;;
81137;SDS011;70623;50.886;3.892;2023-06-14T11:50:49;9.02;;;5.55;;
81137;SDS011;70623;50.886;3.892;2023-06-14T11:53:16;10.55;;;5.28;;
81137;SDS011;70623;50.886;3.892;2023-06-14T11:55:42;6.82;;;4.95;;
81137;SDS011;70623;50.886;3.892;2023-06-14T11:58:10;10.68;;;6.20;;
81137;SDS011;70623;50.886;3.892;2023-06-14T12:00:36;8.38;;;6.03;;
81137;SDS011;70623;50.886;3.892;2023-06-14T12:03:02;11.43;;;5.45;;
81137;SDS011;70623;50.886;3.892;2023-06-14T12:05:28;6.70;;;4.65;;
81137;SDS011;70623;50.886;3.892;2023-06-14T12:07:58;8.07;;;5.20;;
81137;SDS011;70623;50.886;3.892;2023-06-14T12:10:28;16.60;;;6.00;;
81137;SDS011;70623;50.886;3.892;2023-06-14T12:12:58;7.22;;;5.22;;
81137;SDS011;70623;50.886;3.892;2023-06-14T12:15:29;10.02;;;5.70;;
81137;SDS011;70623;50.886;3.892;2023-06-14T12:17:55;10.43;;;5.60;;
81137;SDS011;70623;50.886;3.892;2023-06-14T12:20:22;10.75;;;5.60;;
81137;SDS011;70623;50.886;3.892;2023-06-14T12:22:51;8.20;;;5.13;;
81137;SDS011;70623;50.886;3.892;2023-06-14T12:25:28;8.02;;;5.30;;
81137;SDS011;70623;50.886;3.892;2023-06-14T12:30:33;7.30;;;4.57;;
81137;SDS011;70623;50.886;3.892;2023-06-14T12:33:01;6.85;;;5.05;;
81137;SDS011;70623;50.886;3.892;2023-06-14T12:35:28;7.20;;;4.47;;
81137;SDS011;70623;50.886;3.892;2023-06-14T12:37:53;7.88;;;4.57;;
81137;SDS011;70623;50.886;3.892;2023-06-14T12:40:19;8.60;;;4.97;;
81137;SDS011;70623;50.886;3.892;2023-06-14T12:42:47;7.32;;;4.68;;
81137;SDS011;70623;50.886;3.892;2023-06-14T12:45:13;9.88;;;4.90;;
81137;SDS011;70623;50.886;3.892;2023-06-14T12:47:39;9.32;;;5.00;;
81137;SDS011;70623;50.886;3.892;2023-06-14T12:50:05;7.25;;;4.75;;
81137;SDS011;70623;50.886;3.892;2023-06-14T12:52:32;7.97;;;4.45;;
81137;SDS011;70623;50.886;3.892;2023-06-14T12:55:02;9.45;;;4.95;;
81137;SDS011;70623;50.886;3.892;2023-06-14T12:57:29;7.57;;;5.13;;
81137;SDS011;70623;50.886;3.892;2023-06-14T12:59:54;11.98;;;5.30;;
81137;SDS011;70623;50.886;3.892;2023-06-14T13:02:20;8.95;;;4.90;;
81137;SDS011;70623;50.886;3.892;2023-06-14T13:04:48;7.05;;;4.57;;
81137;SDS011;70623;50.886;3.892;2023-06-14T13:07:14;7.43;;;4.60;;
81137;SDS011;70623;50.886;3.892;2023-06-14T13:09:40;9.85;;;4.88;;
81137;SDS011;70623;50.886;3.892;2023-06-14T13:12:09;11.05;;;5.18;;
81137;SDS011;70623;50.886;3.892;2023-06-14T13:14:38;12.10;;;5.13;;
81137;SDS011;70623;50.886;3.892;2023-06-14T13:17:06;8.68;;;4.95;;
81137;SDS011;70623;50.886;3.892;2023-06-14T13:19:33;12.70;;;5.18;;
81137;SDS011;70623;50.886;3.892;2023-06-14T13:22:00;8.35;;;4.93;;
81137;SDS011;70623;50.886;3.892;2023-06-14T13:24:25;8.40;;;4.95;;
81137;SDS011;70623;50.886;3.892;2023-06-14T13:26:54;10.30;;;5.30;;
81137;SDS011;70623;50.886;3.892;2023-06-14T13:29:22;8.43;;;4.78;;
81137;SDS011;70623;50.886;3.892;2023-06-14T13:31:48;10.02;;;4.82;;
81137;SDS011;70623;50.886;3.892;2023-06-14T13:34:14;10.48;;;4.63;;
81137;SDS011;70623;50.886;3.892;2023-06-14T13:36:42;13.50;;;4.90;;
81137;SDS011;70623;50.886;3.892;2023-06-14T13:39:08;12.40;;;4.72;;
81137;SDS011;70623;50.886;3.892;2023-06-14T13:41:33;7.65;;;4.00;;
81137;SDS011;70623;50.886;3.892;2023-06-14T13:44:00;5.43;;;4.20;;
81137;SDS011;70623;50.886;3.892;2023-06-14T13:46:28;8.40;;;4.30;;
81137;SDS011;70623;50.886;3.892;2023-06-14T13:48:54;6.57;;;4.10;;
81137;SDS011;70623;50.886;3.892;2023-06-14T13:51:20;8.15;;;5.07;;
81137;SDS011;70623;50.886;3.892;2023-06-14T13:53:47;7.38;;;4.07;;
81137;SDS011;70623;50.886;3.892;2023-06-14T13:56:14;10.18;;;4.72;;
81137;SDS011;70623;50.886;3.892;2023-06-14T13:58:42;5.35;;;4.60;;
81137;SDS011;70623;50.886;3.892;2023-06-14T14:01:08;7.50;;;4.55;;
81137;SDS011;70623;50.886;3.892;2023-06-14T14:03:37;11.65;;;4.78;;
81137;SDS011;70623;50.886;3.892;2023-06-14T14:06:05;8.85;;;4.50;;
81137;SDS011;70623;50.886;3.892;2023-06-14T14:08:34;8.82;;;4.60;;
81137;SDS011;70623;50.886;3.892;2023-06-14T14:11:02;9.13;;;4.18;;
81137;SDS011;70623;50.886;3.892;2023-06-14T14:13:33;9.40;;;4.63;;
81137;SDS011;70623;50.886;3.892;2023-06-14T14:15:58;8.93;;;4.40;;
81137;SDS011;70623;50.886;3.892;2023-06-14T14:18:26;6.47;;;3.92;;
81137;SDS011;70623;50.886;3.892;2023-06-14T14:20:52;10.65;;;4.88;;
81137;SDS011;70623;50.886;3.892;2023-06-14T14:23:18;12.18;;;4.82;;
81137;SDS011;70623;50.886;3.892;2023-06-14T14:25:45;6.60;;;4.80;;
81137;SDS011;70623;50.886;3.892;2023-06-14T14:28:11;6.55;;;4.70;;
81137;SDS011;70623;50.886;3.892;2023-06-14T14:30:38;10.98;;;4.78;;
81137;SDS011;70623;50.886;3.892;2023-06-14T14:33:05;13.50;;;4.85;;
81137;SDS011;70623;50.886;3.892;2023-06-14T14:35:31;11.88;;;4.75;;
81137;SDS011;70623;50.886;3.892;2023-06-14T14:37:57;6.97;;;4.28;;
81137;SDS011;70623;50.886;3.892;2023-06-14T14:40:23;7.18;;;4.00;;
81137;SDS011;70623;50.886;3.892;2023-06-14T14:42:49;10.40;;;3.97;;
81137;SDS011;70623;50.886;3.892;2023-06-14T14:45:17;6.68;;;4.43;;
81137;SDS011;70623;50.886;3.892;2023-06-14T14:47:43;6.18;;;4.00;;
81137;SDS011;70623;50.886;3.892;2023-06-14T14:50:09;8.02;;;3.65;;
81137;SDS011;70623;50.886;3.892;2023-06-14T14:52:35;8.52;;;4.53;;
81137;SDS011;70623;50.886;3.892;2023-06-14T14:55:01;7.03;;;3.45;;
81137;SDS011;70623;50.886;3.892;2023-06-14T14:57:27;5.70;;;3.35;;
81137;SDS011;70623;50.886;3.892;2023-06-14T14:59:56;8.50;;;4.00;;
81137;SDS011;70623;50.886;3.892;2023-06-14T15:02:22;5.70;;;3.45;;
81137;SDS011;70623;50.886;3.892;2023-06-14T15:04:49;5.80;;;2.92;;
81137;SDS011;70623;50.886;3.892;2023-06-14T15:07:14;7.60;;;4.47;;
81137;SDS011;70623;50.886;3.892;2023-06-14T15:09:40;7.93;;;3.40;;